Time;durP1;ratioP1;P1;durP2;ratioP2;P2;SDS_P1;SDS_P2;PMS_P1;PMS_P2;Temp;Humidity;BMP_temperature;BMP_pressure;BME280_temperature;BME280_humidity;BME280_pressure;Samples;Min_cycle;Max_cycle;Signal;HPM_P1;HPM_P2
2022/10/05 00:00:53;;;;;;;;;;;;;;;;;;4715993;30;20355;-91
2022/10/05 00:03:21;;;;;;;;;;;;;;;;;;4751264;29;19977;-91
2022/10/05 00:05:47;;;;;;;;;;;;;;;;;;4719181;30;20388;-91
2022/10/05 00:08:13;;;;;;;;;;;;;;;;;;4735055;30;19933;-91
2022/10/05 00:10:40;;;;;;;;;;;;;;;;;;4748100;29;20342;-92
2022/10/05 00:13:06;;;;;;;;;;;;;;;;;;4719135;30;19993;-91
2022/10/05 00:15:32;;;;;;;;;;;;;;;;;;4746399;29;20021;-91
2022/10/05 00:17:58;;;;;;;;;;;;;;;;;;4733073;30;20290;-92
2022/10/05 00:20:24;;;;;;;;;;;;;;;;;;4710652;30;19934;-91
2022/10/05 00:22:50;;;;;;;;;;;;;;;;;;4742317;29;23609;-91
2022/10/05 00:25:16;;;;;;;;;;;;;;;;;;4734925;29;21117;-92
2022/10/05 00:27:42;;;;;;;;;;;;;;;;;;4723137;30;19941;-92
2022/10/05 00:30:08;;;;;;;;;;;;;;;;;;4747366;29;20302;-91
2022/10/05 00:32:34;;;;;;;;;;;;;;;;;;4711017;30;19933;-91
2022/10/05 00:35:00;;;;;;;;;;;;;;;;;;4742681;29;20386;-92
2022/10/05 00:37:31;;;;;;;;;;;;;;;;;;4749888;29;19934;-91
2022/10/05 00:39:57;;;;;;;;;;;;;;;;;;4740393;29;19930;-92
2022/10/05 00:42:23;;;;;;;;;;;;;;;;;;4735419;30;20086;-92
2022/10/05 00:44:49;;;;;;;;;;;;;;;;;;4742687;29;20068;-91
2022/10/05 00:47:15;;;;;;;;;;;;;;;;;;4743803;29;20355;-91
2022/10/05 00:49:41;;;;;;;;;;;;;;;;;;4724590;30;19956;-92
2022/10/05 00:52:07;;;;;;;;;;;;;;;;;;4743838;29;19934;-92
2022/10/05 00:54:33;;;;;;;;;;;;;;;;;;4732080;30;20481;-92
2022/10/05 00:56:59;;;;;;;;;;;;;;;;;;4705726;30;19955;-92
2022/10/05 00:59:25;;;;;;;;;;;;;;;;;;4742812;29;19934;-92
2022/10/05 01:01:51;;;;;;;;;;;;;;;;;;4737181;29;20394;-92
2022/10/05 01:04:17;;;;;;;;;;;;;;;;;;4709483;30;20407;-92
2022/10/05 01:06:43;;;;;;;;;;;;;;;;;;4723191;30;19933;-92
2022/10/05 01:09:09;;;;;;;;;;;;;;;;;;4717636;30;19934;-92
2022/10/05 01:11:37;;;;;;;;;;;;;;;;;;4738192;29;19934;-92
2022/10/05 01:14:03;;;;;;;;;;;;;;;;;;4736382;29;19934;-92
2022/10/05 01:16:29;;;;;;;;;;;;;;;;;;4742708;29;20015;-92
2022/10/05 01:18:55;;;;;;;;;;;;;;;;;;4715264;30;20378;-92
2022/10/05 01:21:21;;;;;;;;;;;;;;;;;;4728332;30;19984;-92
2022/10/05 01:23:47;;;;;;;;;;;;;;;;;;4741709;29;19934;-93
2022/10/05 01:26:13;;;;;;;;;;;;;;;;;;4739223;29;19930;-92
2022/10/05 01:28:39;;;;;;;;;;;;;;;;;;4704257;30;20302;-93
2022/10/05 01:31:05;;;;;;;;;;;;;;;;;;4730009;30;21518;-92
2022/10/05 01:33:32;;;;;;;;;;;;;;;;;;4715846;30;24029;-92
2022/10/05 01:35:58;;;;;;;;;;;;;;;;;;4706696;30;19931;-92
2022/10/05 01:38:24;;;;;;;;;;;;;;;;;;4742784;29;19957;-92
2022/10/05 01:40:50;;;;;;;;;;;;;;;;;;4702390;30;19934;-93
2022/10/05 01:43:16;;;;;;;;;;;;;;;;;;4744406;29;20008;-92
2022/10/05 01:45:42;;;;;;;;;;;;;;;;;;4717899;30;20566;-92
2022/10/05 01:48:11;;;;;;;;;;;;;;;;;;4739642;29;19956;-92
2022/10/05 01:50:37;;;;;;;;;;;;;;;;;;4712971;30;20027;-92
2022/10/05 01:53:03;;;;;;;;;;;;;;;;;;4744611;29;20025;-92
2022/10/05 01:55:29;;;;;;;;;;;;;;;;;;4729081;30;19956;-92
2022/10/05 01:57:55;;;;;;;;;;;;;;;;;;4710398;30;20032;-92
2022/10/05 02:00:21;;;;;;;;;;;;;;;;;;4739688;29;19946;-92
2022/10/05 02:02:47;;;;;;;;;;;;;;;;;;4726522;29;19982;-92
2022/10/05 02:05:13;;;;;;;;;;;;;;;;;;4716055;30;20675;-92
2022/10/05 02:07:39;;;;;;;;;;;;;;;;;;4734143;29;19930;-92
2022/10/05 02:10:04;;;;;;;;;;;;;;;;;;4704839;30;21393;-92
2022/10/05 02:12:30;;;;;;;;;;;;;;;;;;4736469;29;19973;-92
2022/10/05 02:14:56;;;;;;;;;;;;;;;;;;4695917;30;19934;-92
2022/10/05 02:17:22;;;;;;;;;;;;;;;;;;4716232;30;19949;-91
2022/10/05 02:19:48;;;;;;;;;;;;;;;;;;4737934;29;20255;-92
2022/10/05 02:22:14;;;;;;;;;;;;;;;;;;4737721;29;20378;-92
2022/10/05 02:24:40;;;;;;;;;;;;;;;;;;4722649;30;19926;-92
2022/10/05 02:27:06;;;;;;;;;;;;;;;;;;4712238;30;19937;-91
2022/10/05 02:29:32;;;;;;;;;;;;;;;;;;4743945;29;20737;-92
2022/10/05 02:31:58;;;;;;;;;;;;;;;;;;4740376;29;19966;-93
2022/10/05 02:34:24;;;;;;;;;;;;;;;;;;4744513;29;19930;-91
2022/10/05 02:36:50;;;;;;;;;;;;;;;;;;4731878;30;19956;-92
2022/10/05 02:39:16;;;;;;;;;;;;;;;;;;4735364;30;19976;-90
2022/10/05 02:41:42;;;;;;;;;;;;;;;;;;4752259;29;21044;-92
2022/10/05 02:44:08;;;;;;;;;;;;;;;;;;4747256;29;20346;-92
2022/10/05 02:46:35;;;;;;;;;;;;;;;;;;4737147;30;20078;-92
2022/10/05 02:49:01;;;;;;;;;;;;;;;;;;4726530;30;20294;-92
2022/10/05 02:51:27;;;;;;;;;;;;;;;;;;4735766;30;19938;-92
2022/10/05 02:53:53;;;;;;;;;;;;;;;;;;4731476;30;19934;-92
2022/10/05 02:56:19;;;;;;;;;;;;;;;;;;4742774;30;20374;-92
2022/10/05 02:58:45;;;;;;;;;;;;;;;;;;4736845;29;19986;-92
2022/10/05 03:01:11;;;;;;;;;;;;;;;;;;4738613;30;19930;-92
2022/10/05 03:03:37;;;;;;;;;;;;;;;;;;4733882;30;20355;-92
2022/10/05 03:06:03;;;;;;;;;;;;;;;;;;4729699;30;19964;-92
2022/10/05 03:08:30;;;;;;;;;;;;;;;;;;4738604;30;19984;-92
2022/10/05 03:10:55;;;;;;;;;;;;;;;;;;4739259;30;20430;-92
2022/10/05 03:13:21;;;;;;;;;;;;;;;;;;4730645;30;19957;-92
2022/10/05 03:15:47;;;;;;;;;;;;;;;;;;4735424;30;20808;-92
2022/10/05 03:18:13;;;;;;;;;;;;;;;;;;4736718;30;19925;-91
2022/10/05 03:20:39;;;;;;;;;;;;;;;;;;4741070;30;19936;-92
2022/10/05 03:23:05;;;;;;;;;;;;;;;;;;4736202;30;22781;-92
2022/10/05 03:25:31;;;;;;;;;;;;;;;;;;4738159;30;20267;-92
2022/10/05 03:27:57;;;;;;;;;;;;;;;;;;4738704;30;20597;-92
2022/10/05 03:30:25;;;;;;;;;;;;;;;;;;4743195;30;19934;-92
2022/10/05 03:32:51;;;;;;;;;;;;;;;;;;4736614;30;20282;-92
2022/10/05 03:35:17;;;;;;;;;;;;;;;;;;4739712;30;20336;-92
2022/10/05 03:37:43;;;;;;;;;;;;;;;;;;4738354;30;19933;-92
2022/10/05 03:40:09;;;;;;;;;;;;;;;;;;4737347;30;20024;-92
2022/10/05 03:42:35;;;;;;;;;;;;;;;;;;4738956;30;19939;-92
2022/10/05 03:45:01;;;;;;;;;;;;;;;;;;4725327;29;19929;-92
2022/10/05 03:47:27;;;;;;;;;;;;;;;;;;4740054;29;19929;-92
2022/10/05 03:49:53;;;;;;;;;;;;;;;;;;4728807;29;19938;-92
2022/10/05 03:52:20;;;;;;;;;;;;;;;;;;4729047;29;20006;-92
2022/10/05 03:54:46;;;;;;;;;;;;;;;;;;4752362;29;20320;-92
2022/10/05 03:57:12;;;;;;;;;;;;;;;;;;4728676;29;19940;-92
2022/10/05 03:59:38;;;;;;;;;;;;;;;;;;4741365;29;19975;-92
2022/10/05 04:02:04;;;;;;;;;;;;;;;;;;4730325;29;21018;-92
2022/10/05 04:04:30;;;;;;;;;;;;;;;;;;4743505;29;19929;-92
2022/10/05 04:06:56;;;;;;;;;;;;;;;;;;4744743;29;19934;-92
2022/10/05 04:09:22;;;;;;;;;;;;;;;;;;4731746;29;20476;-92
2022/10/05 04:11:48;;;;;;;;;;;;;;;;;;4739881;29;19949;-92
2022/10/05 04:14:14;;;;;;;;;;;;;;;;;;4743343;29;19933;-92
2022/10/05 04:16:40;;;;;;;;;;;;;;;;;;4744073;29;19934;-92
2022/10/05 04:19:06;;;;;;;;;;;;;;;;;;4739564;29;19999;-92
2022/10/05 04:21:32;;;;;;;;;;;;;;;;;;4748656;29;20895;-91
2022/10/05 04:23:58;;;;;;;;;;;;;;;;;;4732692;29;19934;-92
2022/10/05 04:26:24;;;;;;;;;;;;;;;;;;4738640;29;19929;-92
2022/10/05 04:28:50;;;;;;;;;;;;;;;;;;4732748;29;19969;-92
2022/10/05 04:31:16;;;;;;;;;;;;;;;;;;4732873;29;19934;-92
2022/10/05 04:33:42;;;;;;;;;;;;;;;;;;4743806;29;20016;-92
2022/10/05 04:36:08;;;;;;;;;;;;;;;;;;4744489;29;19929;-92
2022/10/05 04:38:34;;;;;;;;;;;;;;;;;;4744228;29;19936;-92
2022/10/05 04:41:00;;;;;;;;;;;;;;;;;;4724300;29;20003;-92
2022/10/05 04:43:26;;;;;;;;;;;;;;;;;;4744294;29;20031;-92
2022/10/05 04:45:52;;;;;;;;;;;;;;;;;;4738953;29;19937;-92
2022/10/05 04:48:18;;;;;;;;;;;;;;;;;;4747850;29;20378;-92
2022/10/05 04:50:44;;;;;;;;;;;;;;;;;;4743974;29;19934;-92
2022/10/05 04:53:10;;;;;;;;;;;;;;;;;;4728546;29;19933;-92
2022/10/05 04:55:36;;;;;;;;;;;;;;;;;;4738701;29;19933;-92
2022/10/05 04:58:02;;;;;;;;;;;;;;;;;;4737202;29;20417;-92
2022/10/05 05:00:28;;;;;;;;;;;;;;;;;;4747065;29;19973;-92
2022/10/05 05:02:54;;;;;;;;;;;;;;;;;;4739508;29;19940;-92
2022/10/05 05:05:19;;;;;;;;;;;;;;;;;;4741637;29;19933;-92
2022/10/05 05:07:46;;;;;;;;;;;;;;;;;;4722311;29;20018;-92
2022/10/05 05:10:12;;;;;;;;;;;;;;;;;;4757592;29;19939;-92
2022/10/05 05:12:38;;;;;;;;;;;;;;;;;;4723351;29;19933;-91
2022/10/05 05:15:03;;;;;;;;;;;;;;;;;;4734990;29;20017;-93
2022/10/05 05:17:29;;;;;;;;;;;;;;;;;;4729165;29;19934;-91
2022/10/05 05:19:55;;;;;;;;;;;;;;;;;;4741448;29;20054;-92
2022/10/05 05:22:21;;;;;;;;;;;;;;;;;;4742064;29;19933;-92
2022/10/05 05:24:47;;;;;;;;;;;;;;;;;;4738749;29;20369;-91
2022/10/05 05:27:13;;;;;;;;;;;;;;;;;;4729617;29;20028;-91
2022/10/05 05:29:39;;;;;;;;;;;;;;;;;;4733108;29;19937;-92
2022/10/05 05:32:05;;;;;;;;;;;;;;;;;;4751310;29;21734;-92
2022/10/05 05:34:31;;;;;;;;;;;;;;;;;;4739171;29;19921;-92
2022/10/05 05:36:57;;;;;;;;;;;;;;;;;;4726857;29;19930;-92
2022/10/05 05:39:23;;;;;;;;;;;;;;;;;;4737235;29;19929;-92
2022/10/05 05:41:49;;;;;;;;;;;;;;;;;;4731285;29;19977;-91
2022/10/05 05:44:15;;;;;;;;;;;;;;;;;;4739076;29;20036;-92
2022/10/05 05:46:41;;;;;;;;;;;;;;;;;;4741073;29;20662;-93
2022/10/05 05:49:07;;;;;;;;;;;;;;;;;;4734120;29;19929;-93
2022/10/05 05:51:33;;;;;;;;;;;;;;;;;;4736131;29;20423;-95
2022/10/05 05:53:59;;;;;;;;;;;;;;;;;;4735404;29;19933;-92
2022/10/05 05:56:25;;;;;;;;;;;;;;;;;;4726074;29;19935;-93
2022/10/05 05:58:51;;;;;;;;;;;;;;;;;;4724002;29;20071;-94
2022/10/05 06:01:17;;;;;;;;;;;;;;;;;;4722215;29;19931;-92
2022/10/05 06:03:50;;;;;;;;;;;;;;;;;;4739935;29;19929;-93
2022/10/05 06:06:19;;;;;;;;;;;;;;;;;;4730678;29;20607;-92
2022/10/05 06:08:48;;;;;;;;;;;;;;;;;;4733376;29;19925;-91
2022/10/05 06:11:14;;;;;;;;;;;;;;;;;;4737348;29;19989;-92
2022/10/05 06:13:40;;;;;;;;;;;;;;;;;;4742134;29;19933;-93
2022/10/05 06:16:06;;;;;;;;;;;;;;;;;;4731903;29;20019;-92
2022/10/05 06:18:41;;;;;;;;;;;;;;;;;;4751452;29;20443;-92
2022/10/05 06:21:07;;;;;;;;;;;;;;;;;;4725286;29;20822;-93
2022/10/05 06:23:33;;;;;;;;;;;;;;;;;;4745027;29;19933;-91
2022/10/05 06:25:59;;;;;;;;;;;;;;;;;;4744604;29;20271;-93
2022/10/05 06:28:28;;;;;;;;;;;;;;;;;;4765792;29;20036;-93
2022/10/05 06:30:54;;;;;;;;;;;;;;;;;;4761051;29;19980;-91
2022/10/05 06:33:20;;;;;;;;;;;;;;;;;;4745775;29;20394;-93
2022/10/05 06:35:46;;;;;;;;;;;;;;;;;;4749020;29;19929;-93
2022/10/05 06:38:12;;;;;;;;;;;;;;;;;;4746046;29;21262;-93
2022/10/05 06:40:38;;;;;;;;;;;;;;;;;;4756401;29;19938;-93
2022/10/05 06:43:04;;;;;;;;;;;;;;;;;;4725177;29;20310;-93
2022/10/05 06:45:30;;;;;;;;;;;;;;;;;;4751259;29;19933;-92
2022/10/05 06:47:56;;;;;;;;;;;;;;;;;;4747791;29;19937;-93
2022/10/05 06:50:22;;;;;;;;;;;;;;;;;;4730231;29;19991;-92
2022/10/05 06:52:48;;;;;;;;;;;;;;;;;;4745058;29;19936;-93
2022/10/05 06:55:14;;;;;;;;;;;;;;;;;;4735835;30;19932;-92
2022/10/05 06:57:40;;;;;;;;;;;;;;;;;;4750069;29;19925;-92
2022/10/05 07:00:06;;;;;;;;;;;;;;;;;;4758249;29;19933;-93
2022/10/05 07:02:32;;;;;;;;;;;;;;;;;;4750261;30;20354;-93
2022/10/05 07:04:58;;;;;;;;;;;;;;;;;;4750222;29;19930;-93
2022/10/05 07:07:24;;;;;;;;;;;;;;;;;;4739215;30;20381;-93
2022/10/05 07:09:50;;;;;;;;;;;;;;;;;;4737047;29;19990;-92
2022/10/05 07:12:16;;;;;;;;;;;;;;;;;;4771800;29;19932;-93
2022/10/05 07:14:42;;;;;;;;;;;;;;;;;;4753851;30;19993;-93
2022/10/05 07:17:08;;;;;;;;;;;;;;;;;;4750624;29;19935;-93
2022/10/05 07:19:34;;;;;;;;;;;;;;;;;;4737314;29;19958;-93
2022/10/05 07:22:00;;;;;;;;;;;;;;;;;;4751014;29;19930;-92
2022/10/05 07:24:28;;;;;;;;;;;;;;;;;;4763833;29;20470;-92
2022/10/05 07:26:53;;;;;;;;;;;;;;;;;;4758257;29;19933;-93
2022/10/05 07:29:19;;;;;;;;;;;;;;;;;;4747078;29;20015;-94
2022/10/05 07:31:46;;;;;;;;;;;;;;;;;;4746485;29;19944;-93
2022/10/05 07:34:12;;;;;;;;;;;;;;;;;;4734874;29;19934;-94
2022/10/05 07:39:23;;;;;;;;;;;;;;;;;;4734853;29;19940;-93
2022/10/05 07:41:50;;;;;;;;;;;;;;;;;;4740266;29;19929;-93
2022/10/05 07:44:16;;;;;;;;;;;;;;;;;;4743774;29;20425;-93
2022/10/05 07:46:42;;;;;;;;;;;;;;;;;;4764067;29;21122;-92
2022/10/05 07:49:08;;;;;;;;;;;;;;;;;;4734137;29;20352;-93
2022/10/05 07:51:34;;;;;;;;;;;;;;;;;;4755634;29;19933;-92
2022/10/05 07:54:00;;;;;;;;;;;;;;;;;;4746497;29;20297;-93
2022/10/05 07:56:26;;;;;;;;;;;;;;;;;;4744922;29;19933;-93
2022/10/05 07:58:52;;;;;;;;;;;;;;;;;;4763120;29;19936;-93
2022/10/05 08:01:19;;;;;;;;;;;;;;;;;;4751556;29;19929;-93
2022/10/05 08:03:45;;;;;;;;;;;;;;;;;;4757265;29;19940;-92
2022/10/05 08:06:11;;;;;;;;;;;;;;;;;;4753796;30;20881;-92
2022/10/05 08:08:37;;;;;;;;;;;;;;;;;;4767130;29;19926;-93
2022/10/05 08:11:03;;;;;;;;;;;;;;;;;;4752627;29;20000;-93
2022/10/05 08:13:29;;;;;;;;;;;;;;;;;;4733754;29;20016;-93
2022/10/05 08:15:55;;;;;;;;;;;;;;;;;;4749348;29;19999;-93
2022/10/05 08:18:21;;;;;;;;;;;;;;;;;;4747402;30;19933;-93
2022/10/05 08:20:47;;;;;;;;;;;;;;;;;;4754896;30;19926;-93
2022/10/05 08:23:13;;;;;;;;;;;;;;;;;;4743725;30;20401;-93
2022/10/05 08:25:39;;;;;;;;;;;;;;;;;;4755881;29;19925;-93
2022/10/05 08:28:05;;;;;;;;;;;;;;;;;;4753576;29;21115;-93
2022/10/05 08:30:31;;;;;;;;;;;;;;;;;;4772218;29;19934;-93
2022/10/05 08:32:57;;;;;;;;;;;;;;;;;;4750524;29;19969;-93
2022/10/05 08:35:23;;;;;;;;;;;;;;;;;;4758315;30;19968;-93
2022/10/05 08:37:49;;;;;;;;;;;;;;;;;;4764748;29;19955;-94
2022/10/05 08:40:16;;;;;;;;;;;;;;;;;;4752658;29;19947;-93
2022/10/05 08:42:41;;;;;;;;;;;;;;;;;;4754527;29;19948;-93
2022/10/05 08:45:07;;;;;;;;;;;;;;;;;;4755230;29;20278;-93
2022/10/05 08:47:35;;;;;;;;;;;;;;;;;;4763274;30;19941;-93
2022/10/05 08:50:01;;;;;;;;;;;;;;;;;;4757385;29;20404;-94
2022/10/05 08:52:27;;;;;;;;;;;;;;;;;;4754307;29;19964;-93
2022/10/05 08:54:53;;;;;;;;;;;;;;;;;;4753424;29;19937;-93
2022/10/05 08:57:19;;;;;;;;;;;;;;;;;;4744260;29;19929;-93
2022/10/05 08:59:45;;;;;;;;;;;;;;;;;;4752510;30;19987;-93
2022/10/05 09:02:11;;;;;;;;;;;;;;;;;;4741923;30;19941;-93
2022/10/05 09:04:38;;;;;;;;;;;;;;;;;;4751732;29;20692;-93
2022/10/05 09:07:04;;;;;;;;;;;;;;;;;;4749774;29;19934;-93
2022/10/05 09:09:29;;;;;;;;;;;;;;;;;;4741705;29;19936;-93
2022/10/05 09:11:55;;;;;;;;;;;;;;;;;;4737620;29;19967;-92
2022/10/05 09:14:21;;;;;;;;;;;;;;;;;;4753777;30;20013;-92
2022/10/05 09:16:47;;;;;;;;;;;;;;;;;;4751412;29;19933;-92
2022/10/05 09:19:13;;;;;;;;;;;;;;;;;;4757271;29;19926;-92
2022/10/05 09:21:40;;;;;;;;;;;;;;;;;;4760059;30;19933;-92
2022/10/05 09:24:06;;;;;;;;;;;;;;;;;;4754935;29;19933;-93
2022/10/05 09:26:32;;;;;;;;;;;;;;;;;;4755887;29;19929;-93
2022/10/05 09:28:58;;;;;;;;;;;;;;;;;;4758566;29;19932;-92
2022/10/05 09:31:25;;;;;;;;;;;;;;;;;;4759047;30;19938;-92
2022/10/05 09:33:52;;;;;;;;;;;;;;;;;;4750232;29;19926;-92
2022/10/05 09:36:18;;;;;;;;;;;;;;;;;;4757623;30;19929;-92
2022/10/05 09:38:44;;;;;;;;;;;;;;;;;;4755917;29;19958;-91
2022/10/05 09:41:14;;;;;;;;;;;;;;;;;;4736838;29;19937;-92
2022/10/05 09:43:39;;;;;;;;;;;;;;;;;;4754643;30;19936;-92
2022/10/05 09:46:05;;;;;;;;;;;;;;;;;;4732929;30;21005;-93
2022/10/05 09:48:31;;;;;;;;;;;;;;;;;;4749484;30;20026;-92
2022/10/05 09:50:57;;;;;;;;;;;;;;;;;;4747329;30;19941;-92
2022/10/05 09:53:23;;;;;;;;;;;;;;;;;;4749844;30;20023;-92
2022/10/05 09:55:49;;;;;;;;;;;;;;;;;;4746616;30;19940;-92
2022/10/05 09:58:15;;;;;;;;;;;;;;;;;;4753026;30;19937;-91
2022/10/05 10:00:41;;;;;;;;;;;;;;;;;;4753013;30;20289;-92
2022/10/05 10:03:07;;;;;;;;;;;;;;;;;;4745246;30;19960;-92
2022/10/05 10:05:33;;;;;;;;;;;;;;;;;;4757322;30;19988;-92
2022/10/05 10:07:59;;;;;;;;;;;;;;;;;;4750132;30;19948;-92
2022/10/05 10:10:28;;;;;;;;;;;;;;;;;;4741238;30;19937;-92
2022/10/05 10:12:55;;;;;;;;;;;;;;;;;;4750451;30;19937;-92
2022/10/05 10:15:22;;;;;;;;;;;;;;;;;;4740404;30;19930;-92
2022/10/05 10:17:48;;;;;;;;;;;;;;;;;;4748199;30;19937;-92
2022/10/05 10:20:14;;;;;;;;;;;;;;;;;;4755374;30;20298;-92
2022/10/05 10:22:49;;;;;;;;;;;;;;;;;;4751393;30;19972;-92
2022/10/05 10:25:18;;;;;;;;;;;;;;;;;;4738971;30;19937;-93
2022/10/05 10:27:44;;;;;;;;;;;;;;;;;;4751975;30;22054;-92
2022/10/05 10:30:10;;;;;;;;;;;;;;;;;;4737667;30;19934;-92
2022/10/05 10:32:36;;;;;;;;;;;;;;;;;;4756443;30;19930;-92
2022/10/05 10:35:03;;;;;;;;;;;;;;;;;;4749800;30;20298;-92
2022/10/05 10:37:29;;;;;;;;;;;;;;;;;;4741344;30;19930;-92
2022/10/05 10:39:55;;;;;;;;;;;;;;;;;;4742753;30;20066;-91
2022/10/05 10:42:24;;;;;;;;;;;;;;;;;;4747269;30;19954;-92
2022/10/05 10:44:50;;;;;;;;;;;;;;;;;;4745884;30;20338;-92
2022/10/05 10:47:16;;;;;;;;;;;;;;;;;;4760514;30;19985;-92
2022/10/05 10:49:42;;;;;;;;;;;;;;;;;;4763021;29;20286;-92
2022/10/05 10:52:08;;;;;;;;;;;;;;;;;;4760869;30;19930;-91
2022/10/05 10:54:34;;;;;;;;;;;;;;;;;;4736766;30;19926;-91
2022/10/05 10:57:01;;;;;;;;;;;;;;;;;;4719847;30;20011;-91
2022/10/05 10:59:27;;;;;;;;;;;;;;;;;;4721299;30;20426;-92
2022/10/05 11:01:53;;;;;;;;;;;;;;;;;;4731094;30;19976;-92
2022/10/05 11:04:19;;;;;;;;;;;;;;;;;;4739709;30;19926;-92
2022/10/05 11:06:45;;;;;;;;;;;;;;;;;;4717819;30;20417;-92
2022/10/05 11:09:11;;;;;;;;;;;;;;;;;;4736655;30;19930;-92
2022/10/05 11:11:37;;;;;;;;;;;;;;;;;;4767309;29;19934;-92
2022/10/05 11:14:03;;;;;;;;;;;;;;;;;;4731420;30;20020;-92
2022/10/05 11:16:29;;;;;;;;;;;;;;;;;;4722849;30;19933;-92
2022/10/05 11:18:55;;;;;;;;;;;;;;;;;;4762899;29;20425;-93
2022/10/05 11:21:21;;;;;;;;;;;;;;;;;;4725038;30;19933;-92
2022/10/05 11:23:47;;;;;;;;;;;;;;;;;;4755852;29;19941;-92
2022/10/05 11:26:13;;;;;;;;;;;;;;;;;;4770724;29;19930;-92
2022/10/05 11:28:39;;;;;;;;;;;;;;;;;;4770427;29;19926;-91
2022/10/05 11:31:05;;;;;;;;;;;;;;;;;;4766318;29;21382;-92
2022/10/05 11:33:31;;;;;;;;;;;;;;;;;;4768385;29;19930;-91
2022/10/05 11:35:57;;;;;;;;;;;;;;;;;;4718942;30;20019;-92
2022/10/05 11:38:23;;;;;;;;;;;;;;;;;;4743162;30;20029;-91
2022/10/05 11:40:49;;;;;;;;;;;;;;;;;;4766127;29;19927;-92
2022/10/05 11:43:15;;;;;;;;;;;;;;;;;;4742018;30;19941;-92
2022/10/05 11:45:41;;;;;;;;;;;;;;;;;;4755486;30;19929;-91
2022/10/05 11:48:07;;;;;;;;;;;;;;;;;;4754081;30;19941;-93
2022/10/05 11:50:33;;;;;;;;;;;;;;;;;;4768014;29;20285;-93
2022/10/05 11:52:59;;;;;;;;;;;;;;;;;;4745307;30;19976;-91
2022/10/05 11:55:25;;;;;;;;;;;;;;;;;;4756382;30;20067;-92
2022/10/05 11:57:51;;;;;;;;;;;;;;;;;;4753793;30;19965;-93
2022/10/05 12:00:17;;;;;;;;;;;;;;;;;;4757860;30;19972;-92
2022/10/05 12:02:43;;;;;;;;;;;;;;;;;;4746441;30;20279;-92
2022/10/05 12:05:10;;;;;;;;;;;;;;;;;;4749696;30;19941;-92
2022/10/05 12:10:38;;;;;;;;;;;;;;;;;;;;;
2022/10/05 12:13:07;;;;;;;;;;;;;;;;;;4751898;29;20016;-92
2022/10/05 12:15:52;;;;;;;;;;;;;;;;;;4746632;30;19930;-91
2022/10/05 12:18:20;;;;;;;;;;;;;;;;;;4759772;30;20491;-92
2022/10/05 12:20:52;;;;;;;;;;;;;;;;;;4740352;30;19930;-91
2022/10/05 12:23:21;;;;;;;;;;;;;;;;;;4766622;29;19934;-92
2022/10/05 12:25:47;;;;;;;;;;;;;;;;;;4750344;30;19930;-91
2022/10/05 12:28:16;;;;;;;;;;;;;;;;;;4754128;30;19938;-90
2022/10/05 12:30:51;;;;;;;;;;;;;;;;;;4739070;30;19946;-91
2022/10/05 12:33:17;;;;;;;;;;;;;;;;;;4754919;30;19933;-92
2022/10/05 12:35:46;;;;;;;;;;;;;;;;;;4752745;30;19940;-91
2022/10/05 12:38:17;;;;;;;;;;;;;;;;;;4748362;30;19933;-92
2022/10/05 12:40:44;;;;;;;;;;;;;;;;;;4760020;29;20033;-92
2022/10/05 12:43:13;;;;;;;;;;;;;;;;;;4757001;30;19980;-92
2022/10/05 12:45:42;;;;;;;;;;;;;;;;;;4759574;30;19938;-91
2022/10/05 12:48:15;;;;;;;;;;;;;;;;;;4748342;30;19929;-92
2022/10/05 12:50:53;;;;;;;;;;;;;;;;;;4751196;30;19930;-92
2022/10/05 12:53:19;;;;;;;;;;;;;;;;;;4770759;29;20037;-93
2022/10/05 12:55:48;;;;;;;;;;;;;;;;;;4754191;30;19934;-92
2022/10/05 12:58:14;;;;;;;;;;;;;;;;;;4753806;30;19930;-92
2022/10/05 13:00:42;;;;;;;;;;;;;;;;;;4737561;30;20405;-91
2022/10/05 13:03:08;;;;;;;;;;;;;;;;;;4740933;30;20020;-92
2022/10/05 13:05:34;;;;;;;;;;;;;;;;;;4746411;30;20370;-93
2022/10/05 13:08:03;;;;;;;;;;;;;;;;;;4742836;30;20437;-92
2022/10/05 13:10:32;;;;;;;;;;;;;;;;;;4748031;30;20663;-92
2022/10/05 13:15:50;;;;;;;;;;;;;;;;;;4744366;30;20409;-92
2022/10/05 13:18:22;;;;;;;;;;;;;;;;;;4737171;30;19983;-92
2022/10/05 13:20:48;;;;;;;;;;;;;;;;;;4743343;30;20008;-92
2022/10/05 13:23:16;;;;;;;;;;;;;;;;;;4749662;30;19937;-93
2022/10/05 13:25:42;;;;;;;;;;;;;;;;;;4755077;30;19926;-92
2022/10/05 13:28:09;;;;;;;;;;;;;;;;;;4747807;30;19925;-93
2022/10/05 13:30:38;;;;;;;;;;;;;;;;;;4754006;30;19938;-92
2022/10/05 13:33:04;;;;;;;;;;;;;;;;;;4763843;29;19938;-92
2022/10/05 13:35:30;;;;;;;;;;;;;;;;;;4746202;30;19934;-92
2022/10/05 13:37:58;;;;;;;;;;;;;;;;;;4743805;30;19936;-93
2022/10/05 13:40:30;;;;;;;;;;;;;;;;;;4738809;30;20378;-93
2022/10/05 13:42:56;;;;;;;;;;;;;;;;;;4751773;29;23398;-93
2022/10/05 13:45:23;;;;;;;;;;;;;;;;;;4751354;29;19929;-93
2022/10/05 13:47:49;;;;;;;;;;;;;;;;;;4760494;29;19933;-93
2022/10/05 13:50:15;;;;;;;;;;;;;;;;;;4757058;30;19933;-93
2022/10/05 13:52:41;;;;;;;;;;;;;;;;;;4751280;30;19937;-93
2022/10/05 13:55:10;;;;;;;;;;;;;;;;;;4748891;30;20022;-93
2022/10/05 13:57:43;;;;;;;;;;;;;;;;;;4736941;29;19941;-93
2022/10/05 14:00:12;;;;;;;;;;;;;;;;;;4740868;29;19990;-93
2022/10/05 14:02:38;;;;;;;;;;;;;;;;;;4750094;30;19933;-93
2022/10/05 14:05:04;;;;;;;;;;;;;;;;;;4747455;29;19947;-93
2022/10/05 14:07:30;;;;;;;;;;;;;;;;;;4733259;29;19934;-93
2022/10/05 14:09:57;;;;;;;;;;;;;;;;;;4750334;29;19932;-91
2022/10/05 14:12:23;;;;;;;;;;;;;;;;;;4753381;30;20020;-91
2022/10/05 14:14:49;;;;;;;;;;;;;;;;;;4750444;29;20024;-92
2022/10/05 14:17:15;;;;;;;;;;;;;;;;;;4754188;30;19982;-92
2022/10/05 14:19:41;;;;;;;;;;;;;;;;;;4755620;30;19929;-91
2022/10/05 14:22:07;;;;;;;;;;;;;;;;;;4745663;29;19940;-92
2022/10/05 14:24:33;;;;;;;;;;;;;;;;;;4738301;30;19925;-91
2022/10/05 14:26:59;;;;;;;;;;;;;;;;;;4749625;29;19955;-92
2022/10/05 14:29:25;;;;;;;;;;;;;;;;;;4768916;29;19933;-90
2022/10/05 14:31:51;;;;;;;;;;;;;;;;;;4766221;29;19937;-91
2022/10/05 14:34:17;;;;;;;;;;;;;;;;;;4758698;29;19953;-92
2022/10/05 14:36:43;;;;;;;;;;;;;;;;;;4750149;29;19983;-92
2022/10/05 14:39:09;;;;;;;;;;;;;;;;;;4748196;29;20020;-92
2022/10/05 14:41:36;;;;;;;;;;;;;;;;;;4738020;30;19944;-92
2022/10/05 15:05:52;;;;;;;;;;;;;;;;;;4627525;27;19941;-84
2022/10/05 15:08:28;;;;;;;;;;;;;;;;;;4770627;29;19973;-84
2022/10/05 15:11:03;;;;;;;;;;;;;;;;;;4748260;29;19977;-84
2022/10/05 15:13:32;;;;;;;;;;;;;;;;;;4763649;29;19928;-83
2022/10/05 15:16:06;;;;;;;;;;;;;;;;;;4753860;29;20423;-84
2022/10/05 15:21:35;;;;;;;;;;;;;;;;;;4775778;29;19933;-84
2022/10/05 15:24:04;;;;;;;;;;;;;;;;;;4763924;29;19933;-84
2022/10/05 15:43:00;;;;;;;;;;;;;;;;;;5669922;24;19936;-83
2022/10/05 15:45:41;;;;;;;;;;;;;;;;;;;;;
2022/10/05 15:48:07;;;;;;;;;;;;;;;;;;4777931;29;19932;-83
2022/10/05 15:50:40;;;;;;;;;;;;;;;;;;4780172;29;20024;-86
2022/10/05 16:03:25;;;;;;;;;;;;;;;;;;5265329;24;19956;-92
2022/10/05 16:08:55;;;;;;;;;;;;;;;;;;4755274;29;19936;-92
2022/10/05 16:11:23;;;;;;;;;;;;;;;;;;4759198;29;19944;-92
2022/10/05 16:13:50;;;;;;;;;;;;;;;;;;4749804;29;20332;-91
2022/10/05 16:16:26;;;;;;;;;;;;;;;;;;4742717;29;19985;-91
2022/10/05 16:18:55;;;;;;;;;;;;;;;;;;4761873;29;19933;-91
2022/10/05 16:21:22;;;;;;;;;;;;;;;;;;4764253;29;19929;-91
2022/10/05 16:23:48;;;;;;;;;;;;;;;;;;4738382;29;24107;-93
2022/10/05 16:26:31;;;;;;;;;;;;;;;;;;4755925;29;20012;-90
2022/10/05 16:28:59;;;;;;;;;;;;;;;;;;4724216;30;20588;-92
2022/10/05 16:31:27;;;;;;;;;;;;;;;;;;4739697;30;20008;-93
2022/10/05 16:34:03;;;;;;;;;;;;;;;;;;4735840;29;19930;-93
2022/10/05 16:36:39;;;;;;;;;;;;;;;;;;4727532;30;20417;-93
2022/10/05 16:39:15;;;;;;;;;;;;;;;;;;4741755;30;20067;-93
2022/10/05 16:41:47;;;;;;;;;;;;;;;;;;4721741;29;20012;-92
2022/10/05 16:44:49;;;;;;;;;;;;;;;;;;4722552;30;20041;-91
2022/10/05 16:47:16;;;;;;;;;;;;;;;;;;4721610;30;20017;-92
2022/10/05 16:50:00;;;;;;;;;;;;;;;;;;4726445;30;19932;-92
2022/10/05 16:52:32;;;;;;;;;;;;;;;;;;4715528;30;19937;-92
2022/10/05 16:55:17;;;;;;;;;;;;;;;;;;;;;
2022/10/05 16:58:12;;;;;;;;;;;;;;;;;;4728740;30;19934;-92
2022/10/05 17:00:55;;;;;;;;;;;;;;;;;;4702250;30;19941;-92
2022/10/05 17:03:25;;;;;;;;;;;;;;;;;;4719680;30;19945;-92
2022/10/05 17:05:55;;;;;;;;;;;;;;;;;;4699926;30;19927;-93
2022/10/05 17:08:35;;;;;;;;;;;;;;;;;;4718447;30;19956;-92
2022/10/05 17:11:10;;;;;;;;;;;;;;;;;;4711025;30;20005;-93
2022/10/05 17:13:55;;;;;;;;;;;;;;;;;;4691248;30;19933;-92
2022/10/05 17:16:34;;;;;;;;;;;;;;;;;;;;;
2022/10/05 17:22:24;;;;;;;;;;;;;;;;;;4769109;29;19925;-92
2022/10/05 17:25:09;;;;;;;;;;;;;;;;;;4753477;30;20291;-92
2022/10/05 17:27:36;;;;;;;;;;;;;;;;;;4755873;30;19929;-92
2022/10/05 17:30:26;;;;;;;;;;;;;;;;;;;;;
2022/10/05 17:36:07;;;;;;;;;;;;;;;;;;4679893;30;19931;-92
2022/10/05 17:38:50;;;;;;;;;;;;;;;;;;4663330;30;19932;-91
2022/10/05 17:41:17;;;;;;;;;;;;;;;;;;4637904;30;20346;-93
2022/10/05 17:43:48;;;;;;;;;;;;;;;;;;4681763;30;20014;-93
2022/10/05 17:46:15;;;;;;;;;;;;;;;;;;4674135;30;19931;-93
2022/10/05 17:48:41;;;;;;;;;;;;;;;;;;4705377;30;20012;-91
2022/10/05 17:56:47;;;;;;;;;;;;;;;;;;4735117;30;20462;-93
2022/10/05 17:59:17;;;;;;;;;;;;;;;;;;4738687;30;20376;-93
2022/10/05 18:01:47;;;;;;;;;;;;;;;;;;4737900;30;19930;-92
2022/10/05 18:04:15;;;;;;;;;;;;;;;;;;4749960;30;19937;-92